createdAt,value
2018-10-05T00:00:14.324Z,100838.17
2018-10-05T00:00:49.393Z,100836.59
2018-10-05T00:01:23.599Z,100837.52
2018-10-05T00:01:58.290Z,100840.22
2018-10-05T00:02:32.884Z,100832.12
2018-10-05T00:03:07.607Z,100833.86
2018-10-05T00:03:42.224Z,100838.77
2018-10-05T00:04:16.873Z,100834.48
2018-10-05T00:04:51.597Z,100833.63
2018-10-05T00:05:26.246Z,100835.78
2018-10-05T00:06:00.926Z,100833.63
2018-10-05T00:06:35.876Z,100831.16
2018-10-05T00:07:10.505Z,100834.67
2018-10-05T00:07:45.128Z,100834.60
2018-10-05T00:08:19.779Z,100832.61
2018-10-05T00:08:54.768Z,100831.39
2018-10-05T00:09:29.775Z,100836.13
2018-10-05T00:10:04.464Z,100834.79
2018-10-05T00:10:39.052Z,100835.64
2018-10-05T00:11:13.640Z,100827.91
2018-10-05T00:11:48.664Z,100832.56
2018-10-05T00:12:23.311Z,100834.83
2018-10-05T00:12:58.018Z,100835.83
2018-10-05T00:13:32.980Z,100836.42
2018-10-05T00:14:08.187Z,100833.46
2018-10-05T00:14:42.812Z,100834.39
2018-10-05T00:15:17.657Z,100825.92
2018-10-05T00:15:52.488Z,100834.53
2018-10-05T00:16:27.139Z,100827.10
2018-10-05T00:17:01.745Z,100833.83
2018-10-05T00:17:36.371Z,100833.58
2018-10-05T00:18:10.981Z,100833.98
2018-10-05T00:18:45.614Z,100834.98
2018-10-05T00:19:20.264Z,100838.94
2018-10-05T00:19:55.066Z,100834.27
2018-10-05T00:20:29.794Z,100836.23
2018-10-05T00:21:04.572Z,100832.39
2018-10-05T00:21:39.197Z,100833.76
2018-10-05T00:22:13.823Z,100830.77
2018-10-05T00:22:49.146Z,100827.91
2018-10-05T00:23:23.796Z,100833.94
2018-10-05T00:23:58.563Z,100834.42
2018-10-05T00:24:33.189Z,100832.64
2018-10-05T00:25:08.204Z,100833.05
2018-10-05T00:25:42.855Z,100828.73
2018-10-05T00:26:17.487Z,100826.98
2018-10-05T00:26:52.167Z,100827.55
2018-10-05T00:27:26.939Z,100825.06
2018-10-05T00:28:01.607Z,100826.72
2018-10-05T00:28:36.241Z,100820.77
2018-10-05T00:29:10.857Z,100827.95
2018-10-05T00:29:45.494Z,100828.28
2018-10-05T00:30:20.259Z,100824.95
2018-10-05T00:30:54.901Z,100826.36
2018-10-05T00:31:29.544Z,100829.87
2018-10-05T00:32:04.194Z,100826.02
2018-10-05T00:32:38.788Z,100826.91
2018-10-05T00:33:13.400Z,100824.80
2018-10-05T00:33:48.597Z,100830.48
2018-10-05T00:34:23.326Z,100818.47
2018-10-05T00:34:58.113Z,100822.31
2018-10-05T00:35:32.770Z,100822.72
2018-10-05T00:36:07.754Z,100820.17
2018-10-05T00:36:42.708Z,100823.58
2018-10-05T00:37:17.340Z,100820.84
2018-10-05T00:37:52.025Z,100810.78
2018-10-05T00:38:27.012Z,100820.61
2018-10-05T00:39:01.763Z,100819.69
2018-10-05T00:39:36.373Z,100816.40
2018-10-05T00:40:11.556Z,100816.47
2018-10-05T00:40:46.169Z,100818.28
2018-10-05T00:41:21.275Z,100814.02
2018-10-05T00:41:56.031Z,100813.24
2018-10-05T00:42:30.644Z,100812.42
2018-10-05T00:43:05.276Z,100809.80
2018-10-05T00:43:39.896Z,100811.20
2018-10-05T00:44:14.520Z,100810.25
2018-10-05T00:44:49.166Z,100814.29
2018-10-05T00:45:23.856Z,100812.86
2018-10-05T00:45:58.620Z,100817.31
2018-10-05T00:46:33.328Z,100813.58
2018-10-05T00:47:07.953Z,100813.88
2018-10-05T00:47:42.563Z,100816.91
2018-10-05T00:48:17.162Z,100813.10
2018-10-05T00:48:51.789Z,100813.28
2018-10-05T00:49:26.444Z,100812.53
2018-10-05T00:50:01.122Z,100813.19
2018-10-05T00:50:35.720Z,100815.58
2018-10-05T00:51:10.339Z,100810.45
2018-10-05T00:51:44.960Z,100806.33
2018-10-05T00:52:19.623Z,100814.91
2018-10-05T00:52:54.279Z,100816.27
2018-10-05T00:53:29.205Z,100815.45
2018-10-05T00:54:04.149Z,100817.56
2018-10-05T00:54:38.747Z,100817.70
2018-10-05T00:55:13.420Z,100813.45
2018-10-05T00:55:48.389Z,100814.98
2018-10-05T00:56:23.160Z,100810.28
2018-10-05T00:56:58.064Z,100816.87
2018-10-05T00:57:32.705Z,100810.85
2018-10-05T00:58:07.333Z,100812.28
2018-10-05T00:58:41.996Z,100813.81
2018-10-05T00:59:16.621Z,100811.22
2018-10-05T00:59:52.381Z,100815.45
2018-10-05T01:00:27.110Z,100816.89
2018-10-05T01:01:01.756Z,100811.20
2018-10-05T01:01:36.394Z,100814.95
2018-10-05T01:02:10.529Z,100818.22
2018-10-05T01:02:45.213Z,100808.20
2018-10-05T01:03:19.888Z,100811.11
2018-10-05T01:03:54.547Z,100811.95
2018-10-05T01:04:29.212Z,100814.71
2018-10-05T01:05:04.258Z,100806.88
2018-10-05T01:05:38.866Z,100811.00
2018-10-05T01:06:13.510Z,100809.56
2018-10-05T01:06:48.157Z,100804.05
2018-10-05T01:07:23.278Z,100810.25
2018-10-05T01:07:58.176Z,100812.50
2018-10-05T01:08:32.782Z,100802.28
2018-10-05T01:09:07.899Z,100798.41
2018-10-05T01:09:42.512Z,100805.66
2018-10-05T01:10:17.175Z,100802.70
2018-10-05T01:10:51.831Z,100803.58
2018-10-05T01:11:26.535Z,100809.86
2018-10-05T01:12:01.312Z,100802.17
2018-10-05T01:12:35.912Z,100802.05
2018-10-05T01:13:10.579Z,100798.52
2018-10-05T01:13:45.481Z,100804.75
2018-10-05T01:14:20.249Z,100806.65
2018-10-05T01:14:54.912Z,100801.98
2018-10-05T01:15:29.643Z,100803.47
2018-10-05T01:16:04.668Z,100801.35
2018-10-05T01:16:39.300Z,100804.57
2018-10-05T01:17:13.921Z,100804.98
2018-10-05T01:17:48.627Z,100802.74
2018-10-05T01:18:23.297Z,100810.23
2018-10-05T01:18:57.944Z,100798.09
2018-10-05T01:19:32.646Z,100799.08
2018-10-05T01:20:07.667Z,100801.73
2018-10-05T01:20:42.312Z,100798.05
2018-10-05T01:21:16.961Z,100801.83
2018-10-05T01:21:51.636Z,100799.06
2018-10-05T01:22:26.366Z,100798.65
2018-10-05T01:23:01.094Z,100795.53
2018-10-05T01:23:35.718Z,100798.87
2018-10-05T01:24:10.366Z,100795.53
2018-10-05T01:24:45.007Z,100797.27
2018-10-05T01:25:19.930Z,100793.39
2018-10-05T01:25:54.728Z,100797.27
2018-10-05T01:26:29.410Z,100797.20
2018-10-05T01:27:04.434Z,100794.45
2018-10-05T01:27:39.072Z,100786.86
2018-10-05T01:28:14.069Z,100791.55
2018-10-05T01:28:48.704Z,100788.12
2018-10-05T01:29:23.369Z,100789.86
2018-10-05T01:29:58.428Z,100786.11
2018-10-05T01:30:33.092Z,100788.47
2018-10-05T01:31:08.146Z,100792.22
2018-10-05T01:31:42.756Z,100787.02
2018-10-05T01:32:17.399Z,100787.34
2018-10-05T01:32:52.514Z,100787.72
2018-10-05T01:33:27.205Z,100783.08
2018-10-05T01:34:01.887Z,100790.33
2018-10-05T01:34:36.497Z,100779.95
2018-10-05T01:35:11.142Z,100790.17
2018-10-05T01:35:45.765Z,100777.28
2018-10-05T01:36:20.442Z,100779.02
2018-10-05T01:36:55.148Z,100783.52
2018-10-05T01:37:29.809Z,100777.94
2018-10-05T01:38:04.507Z,100775.80
2018-10-05T01:38:39.171Z,100773.43
2018-10-05T01:39:14.029Z,100772.23
2018-10-05T01:39:53.893Z,100776.66
2018-10-05T01:40:28.572Z,100775.52
2018-10-05T01:41:03.260Z,100778.00
2018-10-05T01:41:37.931Z,100772.84
2018-10-05T01:42:12.703Z,100776.72
2018-10-05T01:42:47.328Z,100775.20
2018-10-05T01:43:22.268Z,100772.46
2018-10-05T01:43:56.972Z,100777.59
2018-10-05T01:44:31.610Z,100767.05
2018-10-05T01:45:06.402Z,100768.40
2018-10-05T01:45:41.097Z,100771.55
2018-10-05T01:46:16.449Z,100767.67
2018-10-05T01:46:51.508Z,100771.27
2018-10-05T01:47:26.189Z,100765.43
2018-10-05T01:48:00.863Z,100766.92
2018-10-05T01:48:35.520Z,100765.19
2018-10-05T01:49:10.173Z,100765.06
2018-10-05T01:49:44.802Z,100762.91
2018-10-05T01:50:19.528Z,100772.97
2018-10-05T01:50:54.387Z,100763.73
2018-10-05T01:51:32.120Z,100766.86
2018-10-05T01:52:06.795Z,100763.33
2018-10-05T01:52:41.427Z,100768.24
2018-10-05T01:53:16.102Z,100767.95
2018-10-05T01:53:50.954Z,100760.70
2018-10-05T01:54:26.284Z,100762.70
2018-10-05T01:55:00.933Z,100758.98
2018-10-05T01:55:35.592Z,100762.03
2018-10-05T01:56:10.273Z,100760.27
2018-10-05T01:56:44.915Z,100763.77
2018-10-05T01:57:20.060Z,100754.56
2018-10-05T01:57:54.768Z,100755.95
2018-10-05T01:58:29.392Z,100754.16
2018-10-05T01:59:04.271Z,100758.53
2018-10-05T01:59:38.880Z,100754.28
2018-10-05T02:00:13.553Z,100749.65
2018-10-05T02:00:48.231Z,100751.00
2018-10-05T02:01:22.919Z,100754.94
2018-10-05T02:01:57.568Z,100755.22
2018-10-05T02:02:32.247Z,100756.83
2018-10-05T02:03:07.074Z,100750.62
2018-10-05T02:03:41.740Z,100748.27
2018-10-05T02:04:16.379Z,100743.83
2018-10-05T02:04:51.191Z,100750.03
2018-10-05T02:05:25.867Z,100744.89
2018-10-05T02:06:00.724Z,100746.28
2018-10-05T02:06:35.396Z,100749.36
2018-10-05T02:07:10.064Z,100751.88
2018-10-05T02:07:44.706Z,100749.80
2018-10-05T02:08:19.359Z,100752.73
2018-10-05T02:08:54.044Z,100748.52
2018-10-05T02:09:28.871Z,100747.51
2018-10-05T02:10:03.590Z,100751.85
2018-10-05T02:10:38.250Z,100749.18
2018-10-05T02:11:13.517Z,100737.91
2018-10-05T02:11:48.520Z,100752.93
2018-10-05T02:12:23.363Z,100748.73
2018-10-05T02:12:58.016Z,100747.80
2018-10-05T02:13:32.660Z,100748.48
2018-10-05T02:14:07.754Z,100746.44
2018-10-05T02:14:42.771Z,100748.67
2018-10-05T02:15:17.403Z,100746.47
2018-10-05T02:15:52.099Z,100748.05
2018-10-05T02:16:26.957Z,100747.32
2018-10-05T02:17:01.827Z,100747.95
2018-10-05T02:17:36.448Z,100749.50
2018-10-05T02:18:11.160Z,100750.50
2018-10-05T02:18:45.808Z,100746.00
2018-10-05T02:19:20.645Z,100753.37
2018-10-05T02:19:55.387Z,100756.39
2018-10-05T02:20:30.049Z,100749.94
2018-10-05T02:21:04.804Z,100750.81
2018-10-05T02:21:39.464Z,100751.26
2018-10-05T02:22:13.664Z,100748.36
2018-10-05T02:22:48.313Z,100753.91
2018-10-05T02:23:23.175Z,100750.53
2018-10-05T02:23:57.844Z,100752.61
2018-10-05T02:24:32.496Z,100748.73
2018-10-05T02:25:07.160Z,100741.97
2018-10-05T02:25:41.812Z,100739.88
2018-10-05T02:26:16.472Z,100740.77
2018-10-05T02:26:50.710Z,100738.27
2018-10-05T02:27:25.438Z,100733.80
2018-10-05T02:28:00.100Z,100724.83
2018-10-05T02:28:34.748Z,100729.20
2018-10-05T02:29:09.428Z,100733.98
2018-10-05T02:29:44.081Z,100728.45
2018-10-05T02:30:18.760Z,100722.38
2018-10-05T02:30:53.469Z,100718.59
2018-10-05T02:31:28.134Z,100729.75
2018-10-05T02:32:02.790Z,100720.14
2018-10-05T02:32:37.449Z,100718.09
2018-10-05T02:33:12.418Z,100718.91
2018-10-05T02:33:47.253Z,100721.66
2018-10-05T02:34:21.924Z,100715.55
2018-10-05T02:34:56.647Z,100722.13
2018-10-05T02:35:30.776Z,100715.26
2018-10-05T02:36:06.107Z,100717.14
2018-10-05T02:36:40.996Z,100709.49
2018-10-05T02:37:15.639Z,100714.63
2018-10-05T02:37:50.299Z,100712.39
2018-10-05T02:38:25.046Z,100714.19
2018-10-05T02:38:59.662Z,100714.25
2018-10-05T02:39:34.264Z,100714.41
2018-10-05T02:40:08.884Z,100707.26
2018-10-05T02:40:43.600Z,100711.95
2018-10-05T02:41:18.663Z,100716.83
2018-10-05T02:41:53.557Z,100708.77
2018-10-05T02:42:28.181Z,100711.41
2018-10-05T02:43:02.835Z,100708.08
2018-10-05T02:43:37.432Z,100701.37
2018-10-05T02:44:11.929Z,100709.43
2018-10-05T02:44:46.517Z,100709.34
2018-10-05T02:45:21.218Z,100704.64
2018-10-05T02:45:55.885Z,100706.44
2018-10-05T02:46:30.519Z,100701.34
2018-10-05T02:47:05.165Z,100707.80
2018-10-05T02:47:39.794Z,100705.68
2018-10-05T02:48:14.488Z,100699.38
2018-10-05T02:48:49.077Z,100704.98
2018-10-05T02:49:23.788Z,100701.97
2018-10-05T02:49:58.460Z,100708.35
2018-10-05T02:50:33.081Z,100713.95
2018-10-05T02:51:07.773Z,100714.02
2018-10-05T02:51:42.365Z,100712.23
2018-10-05T02:52:16.989Z,100710.59
2018-10-05T02:52:51.879Z,100707.44
2018-10-05T02:53:26.557Z,100715.26
2018-10-05T02:54:01.199Z,100714.13
2018-10-05T02:54:35.821Z,100709.14
2018-10-05T02:55:10.448Z,100710.28
2018-10-05T02:55:45.063Z,100714.38
2018-10-05T02:56:19.743Z,100716.11
2018-10-05T02:56:54.404Z,100714.53
2018-10-05T02:57:29.072Z,100711.77
2018-10-05T02:58:03.714Z,100715.38
2018-10-05T02:58:38.332Z,100721.46
2018-10-05T02:59:12.988Z,100716.08
2018-10-05T02:59:47.608Z,100717.14
2018-10-05T03:00:33.601Z,100714.63
2018-10-05T03:01:19.314Z,100708.11
2018-10-05T03:02:05.292Z,100714.94
2018-10-05T03:02:39.978Z,100706.53
2018-10-05T03:03:14.601Z,100711.72
2018-10-05T03:03:49.315Z,100709.70
2018-10-05T03:04:24.030Z,100713.45
2018-10-05T03:04:59.149Z,100707.98
2018-10-05T03:05:33.778Z,100710.59
2018-10-05T03:06:08.424Z,100705.89
2018-10-05T03:06:43.061Z,100699.91
2018-10-05T03:07:17.720Z,100704.63
2018-10-05T03:07:52.418Z,100708.95
2018-10-05T03:08:27.076Z,100704.28
2018-10-05T03:09:01.734Z,100702.94
2018-10-05T03:09:36.692Z,100707.69
2018-10-05T03:10:11.299Z,100703.00
2018-10-05T03:10:45.932Z,100699.94
2018-10-05T03:11:20.640Z,100697.89
2018-10-05T03:12:29.153Z,100706.45
2018-10-05T03:13:03.804Z,100702.64
2018-10-05T03:13:38.574Z,100705.23
2018-10-05T03:14:13.194Z,100706.48
2018-10-05T03:14:47.820Z,100704.81
2018-10-05T03:15:22.515Z,100699.74
2018-10-05T03:15:57.183Z,100696.19
2018-10-05T03:16:31.844Z,100706.55
2018-10-05T03:17:06.478Z,100696.78
2018-10-05T03:17:41.073Z,100686.48
2018-10-05T03:18:15.732Z,100698.05
2018-10-05T03:18:50.423Z,100697.19
2018-10-05T03:19:25.277Z,100696.81
2018-10-05T03:19:59.915Z,100692.09
2018-10-05T03:20:34.528Z,100694.26
2018-10-05T03:21:09.159Z,100696.84
2018-10-05T03:21:44.176Z,100690.39
2018-10-05T03:22:18.867Z,100690.48
2018-10-05T03:22:53.201Z,100693.06
2018-10-05T03:23:27.838Z,100693.09
2018-10-05T03:24:02.464Z,100685.76
2018-10-05T03:24:37.057Z,100693.91
2018-10-05T03:25:11.989Z,100691.09
2018-10-05T03:25:46.604Z,100689.30
2018-10-05T03:26:21.293Z,100688.10
2018-10-05T03:26:55.967Z,100691.53
2018-10-05T03:27:30.655Z,100685.55
2018-10-05T03:28:05.290Z,100689.89
2018-10-05T03:28:39.928Z,100692.06
2018-10-05T03:29:14.544Z,100688.69
2018-10-05T03:29:49.166Z,100683.61
2018-10-05T03:30:23.822Z,100690.94
2018-10-05T03:30:58.473Z,100682.41
2018-10-05T03:31:33.148Z,100683.73
2018-10-05T03:32:07.765Z,100684.58
2018-10-05T03:32:42.364Z,100678.54
2018-10-05T03:33:17.159Z,100681.53
2018-10-05T03:33:51.924Z,100679.83
2018-10-05T03:34:26.612Z,100674.29
2018-10-05T03:35:01.264Z,100682.41
2018-10-05T03:35:35.888Z,100677.66
2018-10-05T03:36:10.507Z,100681.88
2018-10-05T03:36:45.161Z,100679.77
2018-10-05T03:37:19.816Z,100674.17
2018-10-05T03:37:54.473Z,100677.52
2018-10-05T03:38:29.175Z,100680.16
2018-10-05T03:39:04.158Z,100677.98
2018-10-05T03:39:38.774Z,100671.13
2018-10-05T03:40:13.403Z,100674.55
2018-10-05T03:40:48.015Z,100675.79
2018-10-05T03:41:22.754Z,100679.16
2018-10-05T03:41:57.487Z,100681.80
2018-10-05T03:42:32.145Z,100672.36
2018-10-05T03:43:06.992Z,100680.51
2018-10-05T03:43:41.632Z,100676.26
2018-10-05T03:44:16.249Z,100667.28
2018-10-05T03:44:51.071Z,100679.27
2018-10-05T03:45:25.835Z,100680.16
2018-10-05T03:46:00.454Z,100680.56
2018-10-05T03:46:35.085Z,100681.47
2018-10-05T03:47:09.743Z,100686.22
2018-10-05T03:47:44.387Z,100687.13
2018-10-05T03:48:19.047Z,100685.05
2018-10-05T03:48:53.905Z,100690.23
2018-10-05T03:49:28.559Z,100688.97
2018-10-05T03:50:03.235Z,100689.94
2018-10-05T03:50:37.874Z,100684.89
2018-10-05T03:51:12.542Z,100689.55
2018-10-05T03:51:47.534Z,100691.49
2018-10-05T03:52:22.306Z,100683.20
2018-10-05T03:52:57.013Z,100689.21
2018-10-05T03:53:31.661Z,100686.78
2018-10-05T03:54:06.684Z,100681.37
2018-10-05T03:54:41.344Z,100680.94
2018-10-05T03:55:15.974Z,100692.98
2018-10-05T03:55:50.774Z,100684.04
2018-10-05T03:56:25.571Z,100690.16
2018-10-05T03:57:00.204Z,100690.23
2018-10-05T03:57:34.861Z,100683.80
2018-10-05T03:58:09.498Z,100688.92
2018-10-05T03:58:44.139Z,100683.36
2018-10-05T03:59:18.791Z,100687.25
2018-10-05T03:59:53.548Z,100692.41
2018-10-05T04:00:28.261Z,100683.43
2018-10-05T04:01:02.924Z,100682.14
2018-10-05T04:01:37.573Z,100685.22
2018-10-05T04:02:11.720Z,100682.17
2018-10-05T04:02:46.345Z,100691.25
2018-10-05T04:03:21.068Z,100684.80
2018-10-05T04:03:55.705Z,100678.80
2018-10-05T04:04:30.352Z,100682.69
2018-10-05T04:05:05.041Z,100682.23
2018-10-05T04:05:39.667Z,100677.59
2018-10-05T04:06:14.596Z,100681.42
2018-10-05T04:06:50.018Z,100689.09
2018-10-05T04:07:24.680Z,100683.52
2018-10-05T04:07:59.367Z,100685.27
2018-10-05T04:08:34.233Z,100678.85
2018-10-05T04:09:10.600Z,100686.95
2018-10-05T04:09:45.248Z,100680.98
2018-10-05T04:10:19.984Z,100682.39
2018-10-05T04:10:54.615Z,100682.42
2018-10-05T04:11:29.277Z,100687.98
2018-10-05T04:12:03.965Z,100685.91
2018-10-05T04:12:38.593Z,100685.05
2018-10-05T04:13:13.256Z,100685.63
2018-10-05T04:13:48.146Z,100674.48
2018-10-05T04:14:22.818Z,100678.05
2018-10-05T04:14:57.429Z,100683.59
2018-10-05T04:15:31.928Z,100682.47
2018-10-05T04:16:06.941Z,100679.39
2018-10-05T04:16:41.619Z,100686.08
2018-10-05T04:17:16.341Z,100680.53
2018-10-05T04:17:51.028Z,100684.91
2018-10-05T04:18:25.647Z,100677.08
2018-10-05T04:19:00.292Z,100677.16
2018-10-05T04:19:35.057Z,100685.31
2018-10-05T04:20:09.683Z,100677.52
2018-10-05T04:20:44.420Z,100682.09
2018-10-05T04:21:19.131Z,100676.64
2018-10-05T04:21:53.789Z,100677.55
2018-10-05T04:22:30.104Z,100672.83
2018-10-05T04:23:04.769Z,100677.52
2018-10-05T04:23:39.405Z,100675.00
2018-10-05T04:24:14.147Z,100672.95
2018-10-05T04:24:49.073Z,100677.75
2018-10-05T04:25:23.699Z,100676.08
2018-10-05T04:25:58.343Z,100675.63
2018-10-05T04:26:32.695Z,100675.75
2018-10-05T04:27:07.338Z,100674.44
2018-10-05T04:27:41.636Z,100674.92
2018-10-05T04:28:16.447Z,100667.80
2018-10-05T04:28:51.136Z,100676.74
2018-10-05T04:29:25.789Z,100673.75
2018-10-05T04:30:00.621Z,100675.62
2018-10-05T04:30:34.761Z,100675.23
2018-10-05T04:31:09.453Z,100678.20
2018-10-05T04:31:44.138Z,100673.48
2018-10-05T04:32:18.973Z,100673.09
2018-10-05T04:32:53.633Z,100674.05
2018-10-05T04:33:28.265Z,100670.02
2018-10-05T04:34:02.892Z,100666.62
2018-10-05T04:34:37.503Z,100669.63
2018-10-05T04:35:11.633Z,100672.62
2018-10-05T04:35:46.563Z,100663.68
2018-10-05T04:36:21.361Z,100668.05
2018-10-05T04:36:56.003Z,100667.98
2018-10-05T04:37:30.636Z,100659.45
2018-10-05T04:38:05.314Z,100659.05
2018-10-05T04:38:39.984Z,100656.91
2018-10-05T04:39:14.649Z,100657.40
2018-10-05T04:39:49.416Z,100656.05
2018-10-05T04:40:24.781Z,100651.78
2018-10-05T04:40:59.394Z,100654.72
2018-10-05T04:41:34.061Z,100658.14
2018-10-05T04:42:09.065Z,100655.06
2018-10-05T04:42:43.715Z,100657.64
2018-10-05T04:43:18.740Z,100658.91
2018-10-05T04:43:53.525Z,100650.84
2018-10-05T04:44:28.309Z,100656.63
2018-10-05T04:45:02.902Z,100657.04
2018-10-05T04:45:37.535Z,100652.44
2018-10-05T04:46:12.195Z,100657.98
2018-10-05T04:46:47.284Z,100657.16
2018-10-05T04:47:22.248Z,100660.20
2018-10-05T04:47:56.860Z,100661.48
2018-10-05T04:48:31.610Z,100657.63
2018-10-05T04:49:06.316Z,100657.73
2018-10-05T04:49:40.989Z,100659.08
2018-10-05T04:50:15.959Z,100650.52
2018-10-05T04:50:50.789Z,100661.78
2018-10-05T04:51:25.626Z,100661.00
2018-10-05T04:52:00.756Z,100655.99
2018-10-05T04:52:35.392Z,100662.91
2018-10-05T04:53:10.040Z,100660.39
2018-10-05T04:53:45.077Z,100657.45
2018-10-05T04:54:19.775Z,100661.70
2018-10-05T04:54:54.420Z,100660.14
2018-10-05T04:55:29.055Z,100664.42
2018-10-05T04:56:03.728Z,100658.14
2018-10-05T04:56:38.333Z,100662.20
2018-10-05T04:57:13.187Z,100664.28
2018-10-05T04:57:47.939Z,100664.36
2018-10-05T04:58:22.901Z,100656.25
2018-10-05T04:58:57.492Z,100662.88
2018-10-05T04:59:32.120Z,100651.45
2018-10-05T05:00:06.821Z,100654.96
2018-10-05T05:00:41.424Z,100656.96
2018-10-05T05:01:16.110Z,100654.89
2018-10-05T05:01:50.817Z,100662.27
2018-10-05T05:02:25.436Z,100656.88
2018-10-05T05:03:00.043Z,100658.72
2018-10-05T05:03:34.879Z,100656.28
2018-10-05T05:04:09.812Z,100652.77
2018-10-05T05:04:44.624Z,100648.73
2018-10-05T05:05:19.335Z,100649.17
2018-10-05T05:05:54.013Z,100648.49
2018-10-05T05:06:28.815Z,100650.39
2018-10-05T05:07:03.803Z,100649.28
2018-10-05T05:07:38.456Z,100652.41
2018-10-05T05:08:13.573Z,100652.44
2018-10-05T05:08:48.393Z,100644.75
2018-10-05T05:09:23.008Z,100643.95
2018-10-05T05:09:57.612Z,100646.99
2018-10-05T05:10:32.256Z,100646.29
2018-10-05T05:11:06.976Z,100649.74
2018-10-05T05:11:41.583Z,100652.82
2018-10-05T05:12:16.260Z,100653.28
2018-10-05T05:12:51.131Z,100651.36
2018-10-05T05:13:25.743Z,100654.67
2018-10-05T05:13:59.913Z,100652.53
2018-10-05T05:14:34.536Z,100652.66
2018-10-05T05:15:09.229Z,100650.19
2018-10-05T05:15:43.864Z,100649.86
2018-10-05T05:16:18.781Z,100644.67
2018-10-05T05:16:53.392Z,100652.04
2018-10-05T05:17:28.081Z,100648.98
2018-10-05T05:18:02.676Z,100651.37
2018-10-05T05:18:37.287Z,100655.06
2018-10-05T05:19:11.908Z,100652.66
2018-10-05T05:19:46.843Z,100650.42
2018-10-05T05:20:21.645Z,100653.68
2018-10-05T05:20:56.407Z,100648.78
2018-10-05T05:21:31.355Z,100654.82
2018-10-05T05:22:05.631Z,100651.47
2018-10-05T05:22:40.305Z,100648.89
2018-10-05T05:23:15.024Z,100649.42
2018-10-05T05:23:49.957Z,100651.20
2018-10-05T05:24:24.637Z,100651.28
2018-10-05T05:24:59.268Z,100649.64
2018-10-05T05:25:34.047Z,100645.88
2018-10-05T05:26:08.738Z,100646.78
2018-10-05T05:26:43.571Z,100650.16
2018-10-05T05:27:18.280Z,100645.06
2018-10-05T05:27:52.947Z,100650.78
2018-10-05T05:28:27.708Z,100644.73
2018-10-05T05:29:02.353Z,100646.55
2018-10-05T05:29:37.140Z,100645.62
2018-10-05T05:30:11.792Z,100644.05
2018-10-05T05:30:46.460Z,100644.16
2018-10-05T05:31:21.128Z,100643.72
2018-10-05T05:31:55.752Z,100650.10
2018-10-05T05:32:30.364Z,100645.00
2018-10-05T05:33:05.011Z,100647.52
2018-10-05T05:33:39.770Z,100646.55
2018-10-05T05:34:14.609Z,100649.50
2018-10-05T05:34:49.440Z,100649.39
2018-10-05T05:35:24.068Z,100649.39
2018-10-05T05:35:58.697Z,100652.92
2018-10-05T05:36:33.363Z,100647.61
2018-10-05T05:37:07.992Z,100648.61
2018-10-05T05:37:42.618Z,100651.25
2018-10-05T05:38:17.357Z,100646.53
2018-10-05T05:38:52.100Z,100646.99
2018-10-05T05:39:26.676Z,100649.55
2018-10-05T05:40:01.501Z,100646.55
2018-10-05T05:40:36.106Z,100646.20
2018-10-05T05:41:10.848Z,100653.50
2018-10-05T05:41:45.762Z,100647.49
2018-10-05T05:42:19.979Z,100648.02
2018-10-05T05:42:54.658Z,100648.02
2018-10-05T05:43:29.286Z,100649.74
2018-10-05T05:44:03.964Z,100651.47
2018-10-05T05:44:38.774Z,100654.88
2018-10-05T05:45:13.509Z,100649.39
2018-10-05T05:45:48.168Z,100645.03
2018-10-05T05:46:23.092Z,100649.72
2018-10-05T05:46:58.227Z,100648.86
2018-10-05T05:47:32.988Z,100645.80
2018-10-05T05:48:08.488Z,100647.05
2018-10-05T05:48:43.142Z,100641.48
2018-10-05T05:49:17.977Z,100641.48
2018-10-05T05:49:52.657Z,100647.52
2018-10-05T05:50:27.317Z,100637.97
2018-10-05T05:51:01.959Z,100646.94
2018-10-05T05:51:36.588Z,100643.53
2018-10-05T05:52:11.211Z,100645.23
2018-10-05T05:52:45.938Z,100644.66
2018-10-05T05:53:20.690Z,100641.61
2018-10-05T05:53:55.527Z,100642.48
2018-10-05T05:54:30.382Z,100648.31
2018-10-05T05:55:05.864Z,100650.89
2018-10-05T05:55:40.460Z,100648.34
2018-10-05T05:56:15.178Z,100648.73
2018-10-05T05:56:49.925Z,100641.87
2018-10-05T05:57:24.578Z,100647.91
2018-10-05T05:57:58.712Z,100652.16
2018-10-05T05:58:33.425Z,100649.61
2018-10-05T05:59:08.231Z,100651.72
2018-10-05T05:59:42.866Z,100652.16
2018-10-05T06:00:17.565Z,100655.56
2018-10-05T06:00:52.428Z,100643.63
2018-10-05T06:01:27.032Z,100654.77
2018-10-05T06:02:01.765Z,100649.58
2018-10-05T06:02:36.523Z,100649.96
2018-10-05T06:03:11.152Z,100647.76
2018-10-05T06:04:19.204Z,100649.48
2018-10-05T06:04:54.228Z,100656.70
2018-10-05T06:05:28.873Z,100645.12
2018-10-05T06:06:03.896Z,100657.11
2018-10-05T06:06:38.545Z,100652.36
2018-10-05T06:07:13.188Z,100655.29
2018-10-05T06:07:47.794Z,100658.51
2018-10-05T06:08:22.512Z,100658.95
2018-10-05T06:08:57.108Z,100650.52
2018-10-05T06:09:31.937Z,100659.84
2018-10-05T06:10:06.913Z,100658.95
2018-10-05T06:10:41.540Z,100661.16
2018-10-05T06:11:16.130Z,100657.35
2018-10-05T06:11:50.800Z,100656.63
2018-10-05T06:12:25.428Z,100660.50
2018-10-05T06:13:00.074Z,100650.20
2018-10-05T06:13:34.943Z,100657.06
2018-10-05T06:14:09.593Z,100659.17
2018-10-05T06:14:44.284Z,100660.78
2018-10-05T06:15:18.968Z,100656.41
2018-10-05T06:15:54.094Z,100660.05
2018-10-05T06:16:28.939Z,100652.78
2018-10-05T06:17:04.189Z,100658.86
2018-10-05T06:17:38.860Z,100650.73
2018-10-05T06:18:13.720Z,100656.27
2018-10-05T06:18:47.877Z,100655.02
2018-10-05T06:19:22.545Z,100652.53
2018-10-05T06:19:57.148Z,100650.01
2018-10-05T06:20:32.132Z,100650.48
2018-10-05T06:21:06.845Z,100653.69
2018-10-05T06:21:41.595Z,100655.05
2018-10-05T06:22:16.457Z,100657.19
2018-10-05T06:22:51.176Z,100653.82
2018-10-05T06:23:25.797Z,100658.98
2018-10-05T06:24:00.714Z,100655.55
2018-10-05T06:24:35.388Z,100655.59
2018-10-05T06:25:10.096Z,100661.16
2018-10-05T06:25:44.744Z,100650.86
2018-10-05T06:26:19.402Z,100664.02
2018-10-05T06:26:54.048Z,100661.44
2018-10-05T06:27:29.201Z,100665.69
2018-10-05T06:28:04.433Z,100652.27
2018-10-05T06:28:39.160Z,100655.47
2018-10-05T06:29:13.828Z,100659.38
2018-10-05T06:29:48.805Z,100660.73
2018-10-05T06:30:23.440Z,100663.97
2018-10-05T06:30:58.185Z,100661.28
2018-10-05T06:31:33.024Z,100657.98
2018-10-05T06:32:07.740Z,100655.47
2018-10-05T06:32:42.339Z,100657.75
2018-10-05T06:33:16.965Z,100662.91
2018-10-05T06:33:51.790Z,100659.48
2018-10-05T06:34:26.442Z,100654.79
2018-10-05T06:35:01.132Z,100661.22
2018-10-05T06:35:35.916Z,100653.87
2018-10-05T06:36:10.557Z,100653.80
2018-10-05T06:36:45.157Z,100650.47
2018-10-05T06:37:19.793Z,100662.64
2018-10-05T06:37:54.510Z,100651.16